createdAt,value
2023-03-03T00:03:28.194Z,27.57
2023-03-03T00:07:37.350Z,25.83
2023-03-03T00:11:47.061Z,26.27
2023-03-03T00:15:56.653Z,26.73
2023-03-03T00:20:37.720Z,26.80
2023-03-03T00:24:50.067Z,25.83
2023-03-03T00:28:59.163Z,25.13
2023-03-03T00:33:21.384Z,25.37
2023-03-03T00:37:33.209Z,25.77
2023-03-03T00:41:43.804Z,25.07
2023-03-03T00:45:54.434Z,25.57
2023-03-03T00:50:30.786Z,25.33
2023-03-03T00:54:40.486Z,25.63
2023-03-03T00:58:51.346Z,25.87
2023-03-03T01:03:03.995Z,24.17
2023-03-03T01:07:13.163Z,20.83
2023-03-03T01:11:26.269Z,21.87
2023-03-03T01:15:36.925Z,23.73
2023-03-03T01:19:46.145Z,22.27
2023-03-03T01:23:55.374Z,22.17
2023-03-03T01:28:04.762Z,20.13
2023-03-03T01:32:15.485Z,21.70
2023-03-03T01:36:28.523Z,20.60
2023-03-03T01:40:37.603Z,22.13
2023-03-03T01:44:47.127Z,21.80
2023-03-03T01:49:03.549Z,21.10
2023-03-03T01:53:18.905Z,21.73
2023-03-03T01:57:33.508Z,23.93
2023-03-03T02:01:43.103Z,23.67
2023-03-03T02:05:57.004Z,22.23
2023-03-03T02:10:08.628Z,21.73
2023-03-03T02:14:17.770Z,23.50
2023-03-03T02:18:27.149Z,25.13
2023-03-03T02:22:46.329Z,23.87
2023-03-03T02:26:57.312Z,23.13
2023-03-03T02:31:11.204Z,23.43
2023-03-03T02:35:35.273Z,24.70
2023-03-03T02:39:46.430Z,24.13
2023-03-03T02:44:00.853Z,25.47
2023-03-03T02:48:09.931Z,26.50
2023-03-03T02:52:19.509Z,26.00
2023-03-03T02:56:28.907Z,25.40
2023-03-03T03:00:39.604Z,25.37
2023-03-03T03:04:48.828Z,24.93
2023-03-03T03:08:57.886Z,24.73
2023-03-03T03:13:07.010Z,26.07
2023-03-03T03:17:17.605Z,25.63
2023-03-03T03:21:26.611Z,24.70
2023-03-03T03:25:36.170Z,27.97
2023-03-03T03:29:45.063Z,29.63
2023-03-03T03:33:55.610Z,28.33
2023-03-03T03:38:04.647Z,29.50
2023-03-03T03:42:13.650Z,27.97
2023-03-03T03:46:22.819Z,30.33
2023-03-03T03:50:33.365Z,30.83
2023-03-03T03:54:42.404Z,28.83
2023-03-03T03:58:51.450Z,29.33
2023-03-03T04:03:00.699Z,29.23
2023-03-03T04:07:11.799Z,30.00
2023-03-03T04:11:20.955Z,30.67
2023-03-03T04:15:29.994Z,29.60
2023-03-03T04:19:39.013Z,29.30
2023-03-03T04:23:49.715Z,29.53
2023-03-03T04:27:58.800Z,29.67
2023-03-03T04:32:08.490Z,31.07
2023-03-03T04:36:17.652Z,31.37
2023-03-03T04:40:28.435Z,30.93
2023-03-03T04:44:37.499Z,28.43
2023-03-03T04:48:46.907Z,30.30
2023-03-03T04:52:56.175Z,30.43
2023-03-03T04:57:08.178Z,30.97
2023-03-03T05:01:17.200Z,31.70
2023-03-03T05:05:26.369Z,31.57
2023-03-03T05:09:35.427Z,32.67
2023-03-03T05:13:46.368Z,31.50
2023-03-03T05:17:56.707Z,32.60
2023-03-03T05:22:05.763Z,33.70
2023-03-03T05:26:15.402Z,32.27
2023-03-03T05:30:26.024Z,31.73
2023-03-03T05:34:35.025Z,33.23
2023-03-03T05:38:44.006Z,34.20
2023-03-03T05:42:53.260Z,33.50
2023-03-03T05:47:03.963Z,34.33
2023-03-03T05:51:13.066Z,33.53
2023-03-03T05:55:22.429Z,33.63
2023-03-03T05:59:31.425Z,32.47
2023-03-03T06:03:41.830Z,33.53
2023-03-03T06:07:50.793Z,32.80
2023-03-03T06:11:59.768Z,32.97
2023-03-03T06:16:09.603Z,32.73
2023-03-03T06:20:20.311Z,31.47
2023-03-03T06:24:30.673Z,32.43
2023-03-03T06:28:39.751Z,30.43
2023-03-03T06:32:49.010Z,33.17
2023-03-03T06:37:00.111Z,30.77
2023-03-03T06:41:09.114Z,30.27
2023-03-03T06:45:18.387Z,30.13
2023-03-03T06:49:27.440Z,30.23
2023-03-03T06:53:38.429Z,29.30
2023-03-03T06:57:47.543Z,28.33
2023-03-03T07:01:56.769Z,27.97
2023-03-03T07:06:17.672Z,26.30
2023-03-03T07:10:29.776Z,25.83
2023-03-03T07:14:46.076Z,25.30
2023-03-03T07:18:57.280Z,23.30
2023-03-03T07:23:20.588Z,23.93
2023-03-03T07:27:33.082Z,22.10
2023-03-03T07:31:45.574Z,22.93
2023-03-03T07:35:56.805Z,19.27
2023-03-03T07:40:27.085Z,19.43
2023-03-03T07:44:39.804Z,19.27
2023-03-03T07:48:48.826Z,16.03
2023-03-03T07:53:00.575Z,15.60
2023-03-03T07:57:23.287Z,16.50
2023-03-03T08:01:53.572Z,15.30
2023-03-03T08:06:17.349Z,13.67
2023-03-03T08:10:38.680Z,13.27
2023-03-03T08:14:48.841Z,13.83
2023-03-03T08:19:06.396Z,12.87
2023-03-03T08:23:17.516Z,12.53
2023-03-03T08:27:27.032Z,11.53
2023-03-03T08:31:41.542Z,12.20
2023-03-03T08:36:02.584Z,11.13
2023-03-03T08:40:32.229Z,10.67
2023-03-03T08:45:04.320Z,10.60
2023-03-03T08:49:19.773Z,9.80
2023-03-03T08:53:34.127Z,9.70
2023-03-03T08:57:46.936Z,10.80
2023-03-03T09:01:57.036Z,9.40
2023-03-03T09:06:07.458Z,9.47
2023-03-03T09:10:20.829Z,10.30
2023-03-03T09:14:36.428Z,10.10
2023-03-03T09:18:46.636Z,9.90
2023-03-03T09:22:57.128Z,9.63
2023-03-03T09:27:20.593Z,10.07
2023-03-03T09:31:43.042Z,8.57
2023-03-03T09:35:56.316Z,9.17
2023-03-03T09:40:30.406Z,8.97
2023-03-03T09:45:02.011Z,8.43
2023-03-03T09:49:26.353Z,8.23
2023-03-03T09:53:53.326Z,8.80
2023-03-03T09:58:18.686Z,8.70
2023-03-03T10:02:40.621Z,8.77
2023-03-03T10:06:56.508Z,7.67
2023-03-03T10:11:12.552Z,7.80
2023-03-03T10:15:36.633Z,9.03
2023-03-03T10:19:57.395Z,9.57
2023-03-03T10:24:22.557Z,8.03
2023-03-03T10:28:54.579Z,9.43
2023-03-03T10:33:06.458Z,8.87
2023-03-03T10:37:24.937Z,8.07
2023-03-03T10:42:01.105Z,8.80
2023-03-03T10:46:25.960Z,8.00
2023-03-03T10:50:44.809Z,7.70
2023-03-03T10:55:16.002Z,8.50
2023-03-03T10:59:45.547Z,7.23
2023-03-03T11:04:18.329Z,7.20
2023-03-03T11:08:35.929Z,7.03
2023-03-03T11:12:57.477Z,7.03
2023-03-03T11:17:15.131Z,6.70
2023-03-03T11:21:29.082Z,7.33
2023-03-03T11:25:47.729Z,6.47
2023-03-03T11:30:12.527Z,6.57
2023-03-03T11:34:49.289Z,6.03
2023-03-03T11:39:04.708Z,6.37
2023-03-03T11:43:35.354Z,6.20
2023-03-03T11:47:54.390Z,6.30
2023-03-03T11:52:17.677Z,5.33
2023-03-03T11:56:31.684Z,6.30
2023-03-03T12:00:47.297Z,5.17
2023-03-03T12:05:01.807Z,5.90
2023-03-03T12:09:28.268Z,5.33
2023-03-03T12:13:49.709Z,5.27
2023-03-03T12:18:34.066Z,4.87
2023-03-03T12:23:12.081Z,4.90
2023-03-03T12:27:30.226Z,5.17
2023-03-03T12:31:51.031Z,4.73
2023-03-03T12:36:16.361Z,4.87
2023-03-03T12:40:33.377Z,4.63
2023-03-03T12:44:50.285Z,4.67
2023-03-03T12:49:02.913Z,5.30
2023-03-03T12:53:32.153Z,4.90
2023-03-03T12:58:00.863Z,5.17
2023-03-03T13:02:48.954Z,4.47
2023-03-03T13:17:28.062Z,4.73
2023-03-03T13:27:07.828Z,4.07
2023-03-03T13:35:48.885Z,3.90
2023-03-03T13:40:04.503Z,4.50
2023-03-03T13:44:22.507Z,4.27
2023-03-03T13:48:56.730Z,4.67
2023-03-03T13:53:36.606Z,3.77
2023-03-03T13:58:00.615Z,4.50
2023-03-03T14:02:30.252Z,4.00
2023-03-03T14:06:43.291Z,4.30
2023-03-03T14:11:07.815Z,3.53
2023-03-03T14:15:26.578Z,3.40
2023-03-03T14:19:43.574Z,3.53
2023-03-03T14:24:00.332Z,3.40
2023-03-03T14:28:16.114Z,3.40
2023-03-03T14:32:44.488Z,2.67
2023-03-03T14:37:10.177Z,3.50
2023-03-03T14:41:22.285Z,3.33
2023-03-03T14:45:37.659Z,4.03
2023-03-03T14:49:47.077Z,4.57
2023-03-03T14:54:02.273Z,3.60
2023-03-03T14:58:38.219Z,3.33
2023-03-03T15:03:05.039Z,3.10
2023-03-03T15:07:34.337Z,3.00
2023-03-03T15:11:46.762Z,3.10
2023-03-03T15:16:08.792Z,2.70
2023-03-03T15:20:32.778Z,3.20
2023-03-03T15:24:50.929Z,3.23
2023-03-03T15:29:10.110Z,2.93
2023-03-03T15:33:32.068Z,3.20
2023-03-03T15:37:51.191Z,2.60
2023-03-03T15:42:06.590Z,2.63
2023-03-03T15:46:32.161Z,2.93
2023-03-03T15:50:58.306Z,2.50
2023-03-03T15:55:23.627Z,2.70
2023-03-03T16:00:07.974Z,2.17
2023-03-03T16:04:23.890Z,2.40
2023-03-03T16:08:46.447Z,2.13
2023-03-03T16:13:05.074Z,2.10
2023-03-03T16:17:25.545Z,2.40
2023-03-03T16:22:03.823Z,2.77
2023-03-03T16:26:25.769Z,2.53
2023-03-03T16:30:39.515Z,2.80
2023-03-03T16:34:57.868Z,2.37
2023-03-03T16:39:17.172Z,2.80
2023-03-03T16:43:34.134Z,2.30
2023-03-03T16:47:59.347Z,2.13
2023-03-03T16:52:17.596Z,2.40
2023-03-03T16:56:33.986Z,2.83
2023-03-03T17:00:52.683Z,2.27
2023-03-03T17:05:11.019Z,3.60
2023-03-03T17:09:48.190Z,2.50
2023-03-03T17:14:33.040Z,2.90
2023-03-03T17:18:58.650Z,2.70
2023-03-03T17:23:29.551Z,2.73
2023-03-03T17:27:54.868Z,2.87
2023-03-03T17:32:18.598Z,3.00
2023-03-03T17:36:46.823Z,2.77
2023-03-03T17:41:05.234Z,3.13
2023-03-03T17:45:16.831Z,2.50
2023-03-03T17:49:49.370Z,3.33
2023-03-03T17:54:31.062Z,3.40
2023-03-03T17:59:24.810Z,2.93
2023-03-03T18:04:09.139Z,3.00
2023-03-03T18:08:32.036Z,3.67
2023-03-03T18:12:52.148Z,3.30
2023-03-03T18:17:32.850Z,2.90
2023-03-03T18:21:53.133Z,2.77
2023-03-03T18:26:07.475Z,2.70
2023-03-03T18:30:29.064Z,3.00
2023-03-03T18:34:42.075Z,2.90
2023-03-03T18:39:00.329Z,2.87
2023-03-03T18:44:04.856Z,2.83
2023-03-03T18:48:17.993Z,2.90
2023-03-03T18:52:31.481Z,2.67
2023-03-03T18:56:47.995Z,3.53
2023-03-03T19:01:03.009Z,3.10
2023-03-03T19:05:31.768Z,2.60
2023-03-03T19:09:57.395Z,2.70
2023-03-03T19:14:35.970Z,2.83
2023-03-03T19:19:02.972Z,3.33
2023-03-03T19:23:17.749Z,2.97
2023-03-03T19:27:34.345Z,3.40
2023-03-03T19:31:49.047Z,3.00
2023-03-03T19:36:33.215Z,2.67
2023-03-03T19:40:59.952Z,3.50
2023-03-03T19:45:25.600Z,3.53
2023-03-03T19:49:55.845Z,3.10
2023-03-03T19:54:22.829Z,3.80
2023-03-03T19:58:44.252Z,2.90
2023-03-03T20:03:36.767Z,3.80
2023-03-03T20:08:07.430Z,4.20
2023-03-03T20:18:04.248Z,4.50
2023-03-03T20:53:08.948Z,3.87
2023-03-03T21:02:51.533Z,4.00
2023-03-03T21:07:32.535Z,3.87
2023-03-03T21:16:17.989Z,3.43
2023-03-03T21:20:31.266Z,3.97
2023-03-03T21:29:21.496Z,4.07
2023-03-03T21:33:50.670Z,3.77
2023-03-03T21:38:10.667Z,3.83
2023-03-03T21:52:01.325Z,4.67
2023-03-03T22:01:09.138Z,4.10
2023-03-03T22:44:33.523Z,5.17
2023-03-03T22:54:00.579Z,4.70
2023-03-03T23:22:55.407Z,4.70
2023-03-03T23:31:59.991Z,4.00
2023-03-03T23:36:25.001Z,4.40
